Exning, United Kingdom
Current Conditions -  °F | °C
As of 9:58 AM on Wednesday 22 Oct 2014 (Local Time) from EGUN Reporting Station
Clear Clear  
Wind Chill:   Ceiling: Unl
Heat Index:   Visibility: 6mi
Dew Point:   Wind: 17mph
Humidity: 98%   Direction: 280°W
Pressure: 30.21"   Gusts: NA
Location:  52.27°N, 0.37°E
Report Text: EGUN 220858Z AUTO 28015KT 9999 CLR 09/09 A3021 RMK AO2 SLP234 T00890086 $
Loading
Personal Weather Stations






























Interactive Weather Map
Tropical Storm Tracking
New forecast layout! Learn more

10-Day Weather Forecast

Advertisements
Track Severe Weather on mobile